Aviation Digital Data Service (ADDS)

Output produced by TAFs form (0615 UTC 28 July 2014)
found at http://aviationweather.gov/adds/tafs/
 
KGJT 280520Z 2806/2906 11008KT P6SM FEW120 SCT180 
     FM281500 14010KT P6SM SCT120 SCT180 
     FM281800 19007KT P6SM SCT120 BKN180 
     FM282100 28007KT P6SM VCTS SCT100CB BKN150 
     FM290200 16012G25KT P6SM BKN100